createdAt,value
2017-06-13T00:01:36.120Z,59.70
2017-06-13T00:04:04.439Z,59.60
2017-06-13T00:06:32.792Z,59.60
2017-06-13T00:09:01.099Z,59.40
2017-06-13T00:11:29.451Z,59.20
2017-06-13T00:13:57.768Z,59.30
2017-06-13T00:16:26.109Z,59.30
2017-06-13T00:18:54.421Z,59.20
2017-06-13T00:21:22.777Z,59.20
2017-06-13T00:23:51.091Z,59.10
2017-06-13T00:26:19.400Z,59.00
2017-06-13T00:28:47.736Z,59.00
2017-06-13T00:31:16.095Z,59.00
2017-06-13T00:33:44.428Z,59.00
2017-06-13T00:36:12.784Z,59.00
2017-06-13T00:38:41.143Z,59.00
2017-06-13T00:41:09.455Z,59.10
2017-06-13T00:43:37.807Z,59.00
2017-06-13T00:46:06.115Z,59.10
2017-06-13T00:48:34.500Z,59.20
2017-06-13T00:51:03.888Z,59.40
2017-06-13T00:53:32.274Z,59.30
2017-06-13T00:56:00.616Z,59.30
2017-06-13T00:58:28.929Z,59.30
2017-06-13T01:00:57.296Z,59.40
2017-06-13T01:03:25.676Z,59.50
2017-06-13T01:05:54.122Z,59.40
2017-06-13T01:08:22.599Z,59.60
2017-06-13T01:10:50.940Z,59.60
2017-06-13T01:13:19.278Z,59.30
2017-06-13T01:15:47.598Z,59.20
2017-06-13T01:18:15.935Z,59.20
2017-06-13T01:20:44.251Z,59.30
2017-06-13T01:23:12.592Z,59.40
2017-06-13T01:25:40.899Z,59.50
2017-06-13T01:28:09.244Z,59.50
2017-06-13T01:30:37.552Z,59.50
2017-06-13T01:33:05.865Z,59.40
2017-06-13T01:35:34.217Z,59.50
2017-06-13T01:38:02.528Z,59.50
2017-06-13T01:40:30.103Z,59.40
2017-06-13T01:42:58.415Z,59.60
2017-06-13T01:45:26.752Z,59.80
2017-06-13T01:47:55.062Z,60.30
2017-06-13T01:50:23.400Z,59.70
2017-06-13T01:52:51.711Z,59.70
2017-06-13T01:55:20.061Z,59.90
2017-06-13T01:57:48.367Z,60.00
2017-06-13T02:00:16.675Z,60.10
2017-06-13T02:02:45.014Z,60.20
2017-06-13T02:05:13.328Z,60.20
2017-06-13T02:07:41.659Z,60.00
2017-06-13T02:10:09.972Z,60.20
2017-06-13T02:12:38.315Z,60.20
2017-06-13T02:15:06.624Z,60.30
2017-06-13T02:17:34.961Z,61.20
2017-06-13T02:20:03.271Z,60.60
2017-06-13T02:22:31.608Z,60.60
2017-06-13T02:24:59.943Z,60.80
2017-06-13T02:27:28.251Z,61.90
2017-06-13T02:29:55.828Z,61.00
2017-06-13T02:32:24.141Z,62.30
2017-06-13T02:34:52.479Z,61.60
2017-06-13T02:37:20.793Z,61.50
2017-06-13T02:39:49.136Z,61.70
2017-06-13T02:42:17.445Z,62.10
2017-06-13T02:44:45.751Z,62.50
2017-06-13T02:47:14.091Z,63.00
2017-06-13T02:49:42.404Z,63.30
2017-06-13T02:52:10.740Z,63.70
2017-06-13T02:54:39.045Z,64.30
2017-06-13T02:57:07.381Z,64.90
2017-06-13T02:59:35.687Z,65.00
2017-06-13T03:02:04.045Z,65.30
2017-06-13T03:04:32.354Z,66.10
2017-06-13T03:07:00.663Z,66.50
2017-06-13T03:09:28.237Z,66.50
2017-06-13T03:11:56.651Z,66.90
2017-06-13T03:14:24.992Z,67.30
2017-06-13T03:16:53.300Z,68.60
2017-06-13T03:19:21.639Z,67.70
2017-06-13T03:21:49.958Z,67.80
2017-06-13T03:24:18.295Z,68.10
2017-06-13T03:26:46.608Z,68.20
2017-06-13T03:29:14.957Z,68.50
2017-06-13T03:31:43.264Z,69.00
2017-06-13T03:34:11.571Z,69.20
2017-06-13T03:36:39.910Z,69.60
2017-06-13T03:39:08.224Z,70.20
2017-06-13T03:41:36.559Z,70.50
2017-06-13T03:44:04.868Z,70.60
2017-06-13T03:46:33.204Z,70.60
2017-06-13T03:49:01.523Z,70.80
2017-06-13T03:51:29.856Z,71.20
2017-06-13T03:53:58.176Z,71.50
2017-06-13T03:56:26.556Z,71.50
2017-06-13T03:58:54.868Z,71.50
2017-06-13T04:01:23.181Z,71.10
2017-06-13T04:03:51.515Z,69.70
2017-06-13T04:06:19.822Z,66.30
2017-06-13T04:08:48.164Z,62.70
2017-06-13T04:11:16.479Z,59.50
2017-06-13T04:13:44.811Z,57.50
2017-06-13T04:16:13.115Z,55.30
2017-06-13T04:18:41.452Z,54.10
2017-06-13T04:21:09.755Z,53.60
2017-06-13T04:23:38.120Z,54.70
2017-06-13T04:26:06.419Z,56.20
2017-06-13T04:28:34.736Z,57.00
2017-06-13T04:31:03.067Z,57.70
2017-06-13T04:33:31.387Z,56.90
2017-06-13T04:35:59.720Z,55.00
2017-06-13T04:38:28.047Z,53.10
2017-06-13T04:40:56.379Z,50.80
2017-06-13T04:43:24.700Z,49.60
2017-06-13T04:45:53.034Z,48.60
2017-06-13T04:48:21.356Z,48.00
2017-06-13T04:50:49.717Z,47.10
2017-06-13T04:53:18.020Z,46.40
2017-06-13T04:55:46.331Z,45.90
2017-06-13T04:58:14.694Z,45.60
2017-06-13T05:00:42.999Z,45.40
2017-06-13T05:03:11.343Z,45.20
2017-06-13T05:05:39.651Z,45.10
2017-06-13T05:08:07.995Z,45.20
2017-06-13T05:10:36.325Z,45.30
2017-06-13T05:13:05.675Z,45.40
2017-06-13T05:15:33.985Z,45.70
2017-06-13T05:18:02.332Z,46.60
2017-06-13T05:20:30.636Z,47.70
2017-06-13T05:22:59.061Z,48.70
2017-06-13T05:25:27.372Z,49.60
2017-06-13T05:27:55.684Z,50.10
2017-06-13T05:30:23.259Z,50.10
2017-06-13T05:32:51.573Z,51.40
2017-06-13T05:35:19.908Z,52.00
2017-06-13T05:37:48.214Z,52.10
2017-06-13T05:40:16.551Z,52.30
2017-06-13T05:42:44.873Z,52.60
2017-06-13T05:45:13.219Z,53.10
2017-06-13T05:47:41.525Z,52.90
2017-06-13T05:50:09.840Z,52.70
2017-06-13T05:52:37.408Z,52.80
2017-06-13T05:55:05.721Z,53.10
2017-06-13T05:57:34.052Z,53.10
2017-06-13T06:00:02.360Z,53.00
2017-06-13T06:02:30.705Z,52.70
2017-06-13T06:04:59.012Z,52.50
2017-06-13T06:07:27.321Z,52.20
2017-06-13T06:09:55.661Z,51.90
2017-06-13T06:12:24.894Z,51.80
2017-06-13T06:14:53.230Z,51.60
2017-06-13T06:17:21.536Z,51.60
2017-06-13T06:19:49.877Z,51.60
2017-06-13T06:22:18.185Z,51.30
2017-06-13T06:24:46.541Z,51.00
2017-06-13T06:27:14.856Z,50.40
2017-06-13T06:29:43.200Z,49.80
2017-06-13T06:32:11.504Z,49.30
2017-06-13T06:34:39.816Z,48.50
2017-06-13T06:37:08.349Z,48.10
2017-06-13T06:39:36.655Z,47.80
2017-06-13T06:42:04.988Z,47.60
2017-06-13T06:44:33.307Z,47.20
2017-06-13T06:47:01.635Z,46.60
2017-06-13T06:49:29.960Z,46.30
2017-06-13T06:51:58.291Z,45.90
2017-06-13T06:54:26.617Z,46.00
2017-06-13T06:56:54.956Z,45.30
2017-06-13T06:59:23.271Z,44.60
2017-06-13T07:01:51.577Z,44.00
2017-06-13T07:04:19.909Z,43.70
2017-06-13T07:06:48.211Z,43.90
2017-06-13T07:09:16.549Z,43.20
2017-06-13T07:11:44.865Z,42.90
2017-06-13T07:14:13.198Z,42.00
2017-06-13T07:16:41.504Z,42.00
2017-06-13T07:19:09.856Z,41.40
2017-06-13T07:21:38.168Z,41.00
2017-06-13T07:24:06.471Z,40.70
2017-06-13T07:26:34.805Z,40.70
2017-06-13T07:29:03.132Z,40.60
2017-06-13T07:31:31.481Z,39.70
2017-06-13T07:33:59.785Z,40.70
2017-06-13T07:36:28.116Z,41.90
2017-06-13T07:38:56.425Z,41.00
2017-06-13T07:41:24.770Z,40.60
2017-06-13T07:43:53.076Z,39.60
2017-06-13T07:46:21.384Z,38.80
2017-06-13T07:48:49.732Z,38.70
2017-06-13T07:51:18.039Z,39.20
2017-06-13T07:53:46.395Z,40.00
2017-06-13T07:56:14.702Z,40.50
2017-06-13T07:58:43.045Z,40.80
2017-06-13T08:01:11.349Z,41.30
2017-06-13T08:03:39.700Z,41.70
2017-06-13T08:06:08.005Z,41.10
2017-06-13T08:08:36.357Z,39.80
2017-06-13T08:11:04.664Z,39.10
2017-06-13T08:13:32.987Z,39.00
2017-06-13T08:16:01.322Z,39.00
2017-06-13T08:18:29.635Z,39.00
2017-06-13T08:20:57.967Z,39.30
2017-06-13T08:23:26.314Z,39.50
2017-06-13T08:25:54.648Z,39.70
2017-06-13T08:28:22.952Z,39.70
2017-06-13T08:30:51.319Z,40.40
2017-06-13T08:33:19.632Z,40.70
2017-06-13T08:35:47.976Z,40.70
2017-06-13T08:38:16.280Z,40.00
2017-06-13T08:40:44.591Z,39.30
2017-06-13T08:43:12.921Z,38.50
2017-06-13T08:45:41.233Z,37.80
2017-06-13T08:48:09.567Z,38.10
2017-06-13T08:50:37.872Z,37.80
2017-06-13T08:53:06.202Z,37.30
2017-06-13T08:55:34.508Z,37.00
2017-06-13T08:58:02.845Z,37.10
2017-06-13T09:00:31.163Z,37.40
2017-06-13T09:02:59.512Z,38.00
2017-06-13T09:05:27.821Z,38.30
2017-06-13T09:07:56.126Z,38.50
2017-06-13T09:10:24.455Z,39.00
2017-06-13T09:12:52.783Z,38.90
2017-06-13T09:15:21.136Z,38.90
2017-06-13T09:17:49.439Z,38.20
2017-06-13T09:20:17.797Z,37.10
2017-06-13T09:22:46.136Z,36.30
2017-06-13T09:25:14.470Z,36.20
2017-06-13T09:27:42.796Z,36.00
2017-06-13T09:30:11.141Z,35.30
2017-06-13T09:32:39.452Z,35.20
2017-06-13T09:35:07.768Z,35.70
2017-06-13T09:37:36.102Z,36.70
2017-06-13T09:40:04.413Z,36.70
2017-06-13T09:42:32.748Z,36.30
2017-06-13T09:45:01.061Z,35.40
2017-06-13T09:47:29.421Z,34.60
2017-06-13T09:49:57.733Z,34.60
2017-06-13T09:52:26.066Z,35.10
2017-06-13T09:54:54.369Z,35.80
2017-06-13T09:57:22.712Z,35.90
2017-06-13T09:59:51.014Z,35.60
2017-06-13T10:02:19.318Z,35.40
2017-06-13T10:04:47.656Z,35.40
2017-06-13T10:07:15.960Z,35.60
2017-06-13T10:09:44.298Z,36.00
2017-06-13T10:12:11.864Z,36.00
2017-06-13T10:14:40.198Z,35.40
2017-06-13T10:17:08.507Z,35.90
2017-06-13T10:19:36.845Z,36.00
2017-06-13T10:22:05.154Z,35.80
2017-06-13T10:24:33.503Z,36.70
2017-06-13T10:27:01.827Z,36.90
2017-06-13T10:29:30.142Z,37.10
2017-06-13T10:31:58.476Z,37.20
2017-06-13T10:34:26.788Z,37.00
2017-06-13T10:36:55.128Z,37.40
2017-06-13T10:39:23.440Z,37.60
2017-06-13T10:41:51.777Z,36.40
2017-06-13T10:44:20.089Z,36.20
2017-06-13T10:46:48.423Z,36.50
2017-06-13T10:49:16.732Z,36.20
2017-06-13T10:51:45.090Z,35.80
2017-06-13T10:54:13.403Z,36.00
2017-06-13T10:56:41.707Z,35.30
2017-06-13T10:59:10.063Z,35.60
2017-06-13T11:01:38.368Z,35.60
2017-06-13T11:04:06.716Z,35.30
2017-06-13T11:06:35.023Z,35.20
2017-06-13T11:09:03.357Z,35.10
2017-06-13T11:11:31.687Z,35.60
2017-06-13T11:14:00.032Z,35.40
2017-06-13T11:16:28.346Z,35.00
2017-06-13T11:18:56.656Z,35.40
2017-06-13T11:21:24.998Z,34.00
2017-06-13T11:23:53.312Z,33.70
2017-06-13T11:26:21.640Z,33.60
2017-06-13T11:28:49.963Z,33.40
2017-06-13T11:31:18.304Z,33.60
2017-06-13T11:33:46.619Z,33.60
2017-06-13T11:36:14.953Z,33.40
2017-06-13T11:38:43.268Z,33.40
2017-06-13T11:41:11.628Z,34.10
2017-06-13T11:43:39.937Z,34.10
2017-06-13T11:46:08.249Z,34.30
2017-06-13T11:48:36.589Z,34.40
2017-06-13T11:51:04.902Z,34.00
2017-06-13T11:53:33.240Z,34.10
2017-06-13T11:56:01.561Z,33.70
2017-06-13T11:58:29.894Z,34.00
2017-06-13T12:00:58.204Z,34.60
2017-06-13T12:03:26.548Z,34.30
2017-06-13T12:05:54.854Z,34.70
2017-06-13T12:08:23.163Z,35.20
2017-06-13T12:10:51.496Z,35.00
2017-06-13T12:13:19.803Z,35.00
2017-06-13T12:15:48.152Z,34.70
2017-06-13T12:18:16.457Z,34.70
2017-06-13T12:20:44.812Z,34.00
2017-06-13T12:23:13.116Z,33.50
2017-06-13T12:25:41.464Z,33.80
2017-06-13T12:28:09.767Z,33.60
2017-06-13T12:30:38.088Z,33.20
2017-06-13T12:33:05.656Z,33.30
2017-06-13T12:35:33.963Z,32.20
2017-06-13T12:38:02.301Z,30.90
2017-06-13T12:40:30.616Z,30.00
2017-06-13T12:42:58.954Z,29.80
2017-06-13T12:45:27.266Z,29.40
2017-06-13T12:47:55.619Z,30.00
2017-06-13T12:50:23.931Z,30.40
2017-06-13T12:52:52.236Z,31.10
2017-06-13T12:55:20.574Z,31.60
2017-06-13T12:57:48.880Z,32.20
2017-06-13T13:00:17.237Z,33.10
2017-06-13T13:02:45.544Z,34.00
2017-06-13T13:05:13.887Z,34.80
2017-06-13T13:07:42.207Z,34.60
2017-06-13T13:10:10.633Z,35.00
2017-06-13T13:12:38.943Z,35.60
2017-06-13T13:15:07.292Z,35.70
2017-06-13T13:17:35.607Z,35.90
2017-06-13T13:20:03.951Z,35.30
2017-06-13T13:22:32.282Z,35.60
2017-06-13T13:25:00.638Z,35.80
2017-06-13T13:27:28.984Z,35.70
2017-06-13T13:29:57.293Z,35.00
2017-06-13T13:32:25.629Z,34.60
2017-06-13T13:34:53.937Z,34.30
2017-06-13T13:37:22.281Z,34.10
2017-06-13T13:39:50.593Z,34.50
2017-06-13T13:42:18.948Z,33.30
2017-06-13T13:44:47.259Z,34.00
2017-06-13T13:47:15.563Z,34.10
2017-06-13T13:49:43.891Z,34.20
2017-06-13T13:52:12.221Z,34.70
2017-06-13T13:54:40.557Z,35.10
2017-06-13T13:57:08.872Z,35.30
2017-06-13T13:59:37.205Z,35.50
2017-06-13T14:02:05.527Z,35.50
2017-06-13T14:04:33.862Z,35.60
2017-06-13T14:07:02.189Z,35.90
2017-06-13T14:09:30.539Z,35.50
2017-06-13T14:11:59.861Z,35.80
2017-06-13T14:14:28.178Z,35.60
2017-06-13T14:16:55.754Z,35.50
2017-06-13T14:19:24.079Z,34.70
2017-06-13T14:21:52.412Z,34.90
2017-06-13T14:24:20.750Z,35.20
2017-06-13T14:26:49.089Z,35.40
2017-06-13T14:29:17.405Z,36.00
2017-06-13T14:31:45.737Z,36.20
2017-06-13T14:34:14.049Z,35.80
2017-06-13T14:36:42.400Z,36.00
2017-06-13T14:39:10.707Z,35.90
2017-06-13T14:41:39.018Z,35.70
2017-06-13T14:44:07.348Z,35.30
2017-06-13T14:46:35.663Z,34.40
2017-06-13T14:49:03.999Z,34.00
2017-06-13T14:51:32.304Z,34.30
2017-06-13T14:54:00.645Z,34.90
2017-06-13T14:56:28.951Z,35.40
2017-06-13T14:58:57.284Z,35.90
2017-06-13T15:01:25.595Z,36.20
2017-06-13T15:03:53.946Z,35.50
2017-06-13T15:06:22.252Z,34.80
2017-06-13T15:08:50.562Z,35.10
2017-06-13T15:11:18.902Z,34.90
2017-06-13T15:13:47.216Z,34.30
2017-06-13T15:16:15.548Z,35.00
2017-06-13T15:18:43.856Z,34.90
2017-06-13T15:21:12.197Z,34.20
2017-06-13T15:23:40.499Z,34.10
2017-06-13T15:26:08.884Z,34.30
2017-06-13T15:28:37.195Z,34.50
2017-06-13T15:31:05.554Z,35.00
2017-06-13T15:33:33.859Z,35.70
2017-06-13T15:36:02.172Z,37.20
2017-06-13T15:38:30.514Z,36.70
2017-06-13T15:40:58.825Z,36.60
2017-06-13T15:43:27.162Z,37.10
2017-06-13T15:45:55.476Z,36.20
2017-06-13T15:48:23.809Z,36.20
2017-06-13T15:50:52.133Z,36.90
2017-06-13T15:53:20.517Z,36.30
2017-06-13T15:55:48.824Z,35.60
2017-06-13T15:58:17.144Z,35.00
2017-06-13T16:00:45.490Z,35.30
2017-06-13T16:03:13.821Z,35.60
2017-06-13T16:05:42.183Z,35.80
2017-06-13T16:08:10.503Z,36.30
2017-06-13T16:10:38.837Z,35.40
2017-06-13T16:13:07.163Z,36.00
2017-06-13T16:15:35.504Z,36.30
2017-06-13T16:18:03.812Z,35.60
2017-06-13T16:20:32.121Z,35.70
2017-06-13T16:23:00.458Z,36.40
2017-06-13T16:25:28.773Z,36.50
2017-06-13T16:27:57.112Z,36.50
2017-06-13T16:30:25.427Z,36.00
2017-06-13T16:32:53.760Z,36.30
2017-06-13T16:35:22.069Z,37.00
2017-06-13T16:37:50.400Z,37.30
2017-06-13T16:40:19.025Z,37.70
2017-06-13T16:42:47.368Z,38.50
2017-06-13T16:45:15.680Z,38.40
2017-06-13T16:47:43.990Z,38.40
2017-06-13T16:50:12.333Z,37.90
2017-06-13T16:52:40.649Z,37.30
2017-06-13T16:55:08.990Z,36.80
2017-06-13T16:57:37.306Z,36.80
2017-06-13T17:00:05.643Z,36.60
2017-06-13T17:02:33.979Z,36.70
2017-06-13T17:05:02.311Z,37.00
2017-06-13T17:07:30.645Z,37.10
2017-06-13T17:09:59.004Z,37.40
2017-06-13T17:12:27.341Z,37.60
2017-06-13T17:14:55.669Z,37.60
2017-06-13T17:17:24.011Z,37.40
2017-06-13T17:19:52.321Z,37.50
2017-06-13T17:22:20.653Z,38.00
2017-06-13T17:24:49.067Z,38.90
2017-06-13T17:27:17.409Z,39.30
2017-06-13T17:29:45.727Z,39.50
2017-06-13T17:32:14.153Z,39.90
2017-06-13T17:34:42.464Z,40.10
2017-06-13T17:37:10.775Z,40.50
2017-06-13T17:39:39.109Z,40.60
2017-06-13T17:42:06.660Z,40.60
2017-06-13T17:44:35.011Z,41.30
2017-06-13T17:47:03.326Z,41.60
2017-06-13T17:49:31.661Z,41.80
2017-06-13T17:52:00.010Z,42.20
2017-06-13T17:54:28.340Z,42.80
2017-06-13T17:56:56.703Z,42.70
2017-06-13T17:59:25.052Z,42.30
2017-06-13T18:01:53.363Z,41.80
2017-06-13T18:04:21.669Z,40.80
2017-06-13T18:06:50.013Z,40.60
2017-06-13T18:09:18.321Z,39.90
2017-06-13T18:11:46.663Z,40.20
2017-06-13T18:14:14.970Z,40.40
2017-06-13T18:16:43.304Z,40.40
2017-06-13T18:19:11.672Z,40.70
2017-06-13T18:21:40.005Z,41.10
2017-06-13T18:24:08.345Z,41.00
2017-06-13T18:26:36.768Z,41.00
2017-06-13T18:29:05.401Z,41.00
2017-06-13T18:31:33.735Z,41.20
2017-06-13T18:34:02.047Z,41.70
2017-06-13T18:36:30.432Z,41.70
2017-06-13T18:38:58.773Z,41.90
2017-06-13T18:41:27.080Z,42.40
2017-06-13T18:43:55.411Z,42.90
2017-06-13T18:46:23.719Z,43.20
2017-06-13T18:48:51.348Z,43.20
2017-06-13T18:51:19.663Z,43.80
2017-06-13T18:53:48.015Z,44.10
2017-06-13T18:56:16.324Z,44.50
2017-06-13T18:58:44.648Z,44.80
2017-06-13T19:01:12.996Z,45.10
2017-06-13T19:03:41.313Z,45.80
2017-06-13T19:06:09.644Z,46.40
2017-06-13T19:08:37.958Z,47.00
2017-06-13T19:11:06.302Z,47.50
2017-06-13T19:13:34.603Z,48.00
2017-06-13T19:16:02.941Z,48.30
2017-06-13T19:18:31.286Z,48.70
2017-06-13T19:20:59.655Z,49.20
2017-06-13T19:23:27.973Z,49.80
2017-06-13T19:25:56.283Z,50.50
2017-06-13T19:28:24.648Z,51.00
2017-06-13T19:30:52.975Z,52.40
2017-06-13T19:33:21.347Z,53.00
2017-06-13T19:35:49.675Z,53.60
2017-06-13T19:38:17.257Z,53.50
2017-06-13T19:40:45.600Z,53.90
2017-06-13T19:43:13.934Z,54.70
2017-06-13T19:45:42.244Z,55.00
2017-06-13T19:48:10.598Z,55.10
2017-06-13T19:50:38.914Z,55.60
2017-06-13T19:53:07.268Z,55.80
2017-06-13T19:55:35.609Z,56.50
2017-06-13T19:58:03.939Z,56.90
2017-06-13T20:00:32.272Z,57.00
2017-06-13T20:03:00.596Z,57.30
2017-06-13T20:05:28.939Z,57.70
2017-06-13T20:07:57.260Z,57.90
2017-06-13T20:10:25.599Z,58.20
2017-06-13T20:12:53.935Z,58.50
2017-06-13T20:15:22.251Z,59.00
2017-06-13T20:17:49.829Z,59.00
2017-06-13T20:20:18.144Z,59.80
2017-06-13T20:22:46.489Z,59.80
2017-06-13T20:25:14.809Z,60.10
2017-06-13T20:27:43.168Z,60.70
2017-06-13T20:30:11.494Z,61.10
2017-06-13T20:32:39.815Z,61.60
2017-06-13T20:35:13.863Z,62.20
2017-06-13T20:37:42.201Z,62.40
2017-06-13T20:40:10.546Z,62.90
2017-06-13T20:42:38.864Z,63.40
2017-06-13T20:45:07.208Z,63.80
2017-06-13T20:47:35.512Z,64.10
2017-06-13T20:50:03.846Z,64.30
2017-06-13T20:52:32.158Z,64.70
2017-06-13T20:55:00.509Z,65.30
2017-06-13T20:57:28.825Z,66.10
2017-06-13T20:59:57.132Z,66.10
2017-06-13T21:02:25.459Z,66.20
2017-06-13T21:04:53.768Z,66.20
2017-06-13T21:07:22.103Z,66.50
2017-06-13T21:09:50.415Z,66.90
2017-06-13T21:12:18.751Z,66.90
2017-06-13T21:14:47.072Z,67.40
2017-06-13T21:17:15.418Z,67.70
2017-06-13T21:19:43.736Z,67.80
2017-06-13T21:22:12.132Z,68.10
2017-06-13T21:24:40.471Z,68.80
2017-06-13T21:27:08.846Z,69.10
2017-06-13T21:29:36.534Z,69.10
2017-06-13T21:32:04.855Z,69.00
2017-06-13T21:34:33.259Z,69.50
2017-06-13T21:37:01.656Z,69.70
2017-06-13T21:39:30.012Z,69.80
2017-06-13T21:41:58.331Z,70.00
2017-06-13T21:44:26.645Z,70.50
2017-06-13T21:46:54.995Z,70.50
2017-06-13T21:49:23.312Z,70.70
2017-06-13T21:51:51.881Z,71.80
2017-06-13T21:54:20.469Z,71.20
2017-06-13T21:56:48.809Z,71.20
2017-06-13T21:59:17.116Z,71.30
2017-06-13T22:01:45.451Z,71.60
2017-06-13T22:04:13.764Z,71.60
2017-06-13T22:06:42.131Z,71.60
2017-06-13T22:09:10.455Z,71.80
2017-06-13T22:11:38.779Z,71.90
2017-06-13T22:14:07.143Z,72.30
2017-06-13T22:16:35.466Z,72.10
2017-06-13T22:19:03.821Z,72.30
2017-06-13T22:21:32.143Z,73.00
2017-06-13T22:24:00.483Z,73.10
2017-06-13T22:26:28.791Z,73.10
2017-06-13T22:28:57.199Z,73.10
2017-06-13T22:31:25.509Z,73.20
2017-06-13T22:33:53.864Z,73.30
2017-06-13T22:36:22.206Z,73.30
2017-06-13T22:38:50.522Z,73.40
2017-06-13T22:41:18.868Z,73.50
2017-06-13T22:43:47.186Z,73.40
2017-06-13T22:46:15.523Z,73.50
2017-06-13T22:48:43.899Z,73.70
2017-06-13T22:51:12.261Z,73.90
2017-06-13T22:53:40.671Z,74.30
2017-06-13T22:56:08.988Z,74.40
2017-06-13T22:58:37.339Z,74.40
2017-06-13T23:01:05.661Z,74.50
2017-06-13T23:03:34.009Z,74.50
2017-06-13T23:06:02.320Z,74.50
2017-06-13T23:08:30.660Z,74.90
2017-06-13T23:10:58.976Z,75.00
2017-06-13T23:13:27.312Z,75.00
2017-06-13T23:15:55.629Z,74.90
2017-06-13T23:18:23.967Z,75.10
2017-06-13T23:20:52.279Z,75.10
2017-06-13T23:23:20.597Z,75.00
2017-06-13T23:25:48.940Z,75.20
2017-06-13T23:28:17.260Z,75.30
2017-06-13T23:30:45.613Z,75.00
2017-06-13T23:33:13.927Z,75.10
2017-06-13T23:35:41.504Z,75.10
2017-06-13T23:38:09.824Z,75.50
2017-06-13T23:40:38.189Z,75.80
2017-06-13T23:43:06.507Z,75.70
2017-06-13T23:45:34.823Z,75.50
2017-06-13T23:48:03.173Z,75.40
2017-06-13T23:50:31.493Z,75.60
2017-06-13T23:52:59.832Z,75.70
2017-06-13T23:55:28.147Z,76.00
2017-06-13T23:57:56.489Z,75.90
